Time;durP1;ratioP1;P1;durP2;ratioP2;P2;SDS_P1;SDS_P2;PMS_P1;PMS_P2;Temp;Humidity;BMP_temperature;BMP_pressure;BME280_temperature;BME280_humidity;BME280_pressure;Samples;Min_cycle;Max_cycle;Signal;HPM_P1;HPM_P2
2022/10/04 00:02:32;;;;;;;8.80;3.70;;;;;;;8.69;100.00;96708.76;108320;1268;22553;-81
2022/10/04 00:05:08;;;;;;;7.20;3.30;;;;;;;8.69;100.00;96715.11;108347;1268;22559;-81
2022/10/04 00:07:46;;;;;;;6.90;3.70;;;;;;;8.71;100.00;96712.14;108389;1268;22628;-81
2022/10/04 00:10:24;;;;;;;7.50;3.70;;;;;;;8.71;100.00;96708.80;108268;1268;30215;-81
2022/10/04 00:12:59;;;;;;;8.50;4.10;;;;;;;8.72;100.00;96710.30;108324;1265;22689;-81
2022/10/04 00:15:33;;;;;;;5.80;3.80;;;;;;;8.72;100.00;96709.66;108330;1268;22672;-81
2022/10/04 00:18:21;;;;;;;5.90;3.40;;;;;;;8.74;100.00;96708.09;108342;1268;22595;-81
2022/10/04 00:21:08;;;;;;;6.30;3.40;;;;;;;8.75;100.00;96708.46;108346;1268;25405;-81
2022/10/04 00:23:49;;;;;;;6.80;3.40;;;;;;;8.75;100.00;96701.02;108351;1268;22737;-81
2022/10/04 00:27:09;;;;;;;9.00;3.30;;;;;;;8.75;100.00;96699.42;108340;1268;22526;-81
2022/10/04 00:29:42;;;;;;;9.50;3.70;;;;;;;8.76;100.00;96700.69;108258;1268;26801;-80
2022/10/04 00:32:54;;;;;;;7.20;4.30;;;;;;;8.75;100.00;96705.66;108321;1268;23313;-81
2022/10/04 00:35:50;;;;;;;4.90;3.00;;;;;;;8.75;100.00;96703.97;108361;1268;22708;-82
2022/10/04 00:38:28;;;;;;;6.00;3.40;;;;;;;8.75;100.00;96704.92;108356;1268;22546;-81
2022/10/04 00:41:05;;;;;;;7.70;3.40;;;;;;;8.74;100.00;96691.60;108373;1268;22767;-81
2022/10/04 00:43:45;;;;;;;8.70;4.10;;;;;;;8.74;100.00;96693.08;108333;1268;22583;-81
2022/10/04 00:46:22;;;;;;;8.00;3.80;;;;;;;8.75;100.00;96696.84;108310;1268;22535;-81
2022/10/04 00:48:56;;;;;;;5.50;3.10;;;;;;;8.74;100.00;96688.59;108172;1270;37604;-80
2022/10/04 00:51:33;;;;;;;10.60;3.70;;;;;;;8.74;100.00;96690.70;108330;1268;24239;-81
2022/10/04 00:54:10;;;;;;;5.50;3.60;;;;;;;8.74;100.00;96690.70;108370;1268;22545;-81
2022/10/04 00:56:47;;;;;;;8.80;4.40;;;;;;;8.73;100.00;96692.45;108370;1268;22653;-81
2022/10/04 00:59:35;;;;;;;7.50;4.00;;;;;;;8.73;100.00;96694.72;108261;1270;26986;-81
2022/10/04 01:02:15;;;;;;;8.00;3.30;;;;;;;8.69;100.00;96706.07;108440;1267;22520;-81
2022/10/04 01:04:53;;;;;;;4.20;2.00;;;;;;;8.64;100.00;96698.36;108276;1270;22742;-82
2022/10/04 01:07:30;;;;;;;5.40;2.80;;;;;;;8.55;100.00;96694.10;108416;1268;22618;-81
2022/10/04 01:10:07;;;;;;;5.60;3.10;;;;;;;8.50;100.00;96693.00;108233;1269;28798;-81
2022/10/04 01:12:52;;;;;;;5.60;2.30;;;;;;;8.48;100.00;96695.06;108314;1268;23713;-82
2022/10/04 01:15:34;;;;;;;2.70;1.90;;;;;;;8.47;100.00;96705.80;108318;1268;22660;-81
2022/10/04 01:18:30;;;;;;;5.20;2.30;;;;;;;8.45;100.00;96711.02;108356;1268;23304;-81
2022/10/04 01:21:07;;;;;;;4.30;2.70;;;;;;;8.44;100.00;96703.45;108357;1268;22555;-81
2022/10/04 01:23:44;;;;;;;3.40;2.70;;;;;;;8.43;100.00;96695.09;108326;1268;22552;-81
2022/10/04 01:26:42;;;;;;;6.60;3.10;;;;;;;8.42;100.00;96694.20;108364;1268;24250;-81
2022/10/04 01:29:16;;;;;;;4.40;3.00;;;;;;;8.41;100.00;96693.87;108188;1270;29927;-81
2022/10/04 01:31:49;;;;;;;4.20;2.50;;;;;;;8.42;100.00;96690.81;108298;1270;24275;-81
2022/10/04 01:34:22;;;;;;;5.30;3.10;;;;;;;8.41;100.00;96696.58;108346;1268;22568;-81
2022/10/04 01:36:55;;;;;;;5.20;2.90;;;;;;;8.41;100.00;96694.77;108275;1270;22541;-81
2022/10/04 01:39:28;;;;;;;9.60;3.30;;;;;;;8.42;100.00;96691.65;108286;1268;22614;-81
2022/10/04 01:42:07;;;;;;;6.40;3.50;;;;;;;8.43;100.00;96689.33;108354;1268;22665;-81
2022/10/04 01:44:44;;;;;;;6.30;3.60;;;;;;;8.44;100.00;96691.23;108335;1268;22561;-81
2022/10/04 01:47:24;;;;;;;8.50;3.90;;;;;;;8.44;100.00;96686.39;108345;1268;23910;-81
2022/10/04 01:49:58;;;;;;;6.50;3.80;;;;;;;8.45;100.00;96682.22;108297;1268;24086;-81
2022/10/04 01:52:35;;;;;;;14.70;4.60;;;;;;;8.47;100.00;96680.48;108330;1268;23800;-81
2022/10/04 01:55:13;;;;;;;5.90;3.00;;;;;;;8.47;100.00;96679.95;108340;1268;22545;-82
2022/10/04 01:57:49;;;;;;;7.20;3.80;;;;;;;8.47;100.00;96677.73;108350;1268;23720;-81
2022/10/04 02:00:23;;;;;;;9.60;4.30;;;;;;;8.48;100.00;96680.38;108290;1268;25374;-81
2022/10/04 02:02:58;;;;;;;8.80;4.10;;;;;;;8.49;100.00;96683.27;108346;1268;22565;-81
2022/10/04 02:05:33;;;;;;;7.30;4.30;;;;;;;8.49;100.00;96676.84;108364;1268;22545;-82
2022/10/04 02:08:09;;;;;;;8.20;4.10;;;;;;;8.52;100.00;96682.44;108353;1268;22541;-81
2022/10/04 02:10:41;;;;;;;10.10;3.70;;;;;;;8.53;100.00;96682.43;108234;1270;23978;-81
2022/10/04 02:13:17;;;;;;;9.60;4.80;;;;;;;8.55;100.00;96678.88;108324;1270;22542;-81
2022/10/04 02:15:49;;;;;;;7.00;4.10;;;;;;;8.55;100.00;96682.85;108304;1269;24188;-81
2022/10/04 02:18:23;;;;;;;10.10;4.00;;;;;;;8.56;100.00;96676.62;108270;1270;22565;-81
2022/10/04 02:20:58;;;;;;;8.20;3.70;;;;;;;8.58;100.00;96687.39;108307;1270;22578;-81
2022/10/04 02:23:30;;;;;;;5.20;2.70;;;;;;;8.56;100.00;96680.05;108319;1270;22536;-81
2022/10/04 02:26:04;;;;;;;5.40;2.40;;;;;;;8.52;100.00;96683.06;108072;1270;285437;-81
2022/10/04 02:28:36;;;;;;;4.80;2.30;;;;;;;8.46;100.00;96692.10;108253;1270;26816;-81
2022/10/04 02:33:59;;;;;;;4.90;2.20;;;;;;;8.44;100.00;96690.08;108350;1268;22627;-81
2022/10/04 02:36:32;;;;;;;6.00;2.80;;;;;;;8.44;100.00;96686.17;108345;1268;22535;-81
2022/10/04 02:39:09;;;;;;;10.70;2.80;;;;;;;8.46;100.00;96685.56;108258;1268;31728;-81
2022/10/04 02:41:46;;;;;;;6.80;3.10;;;;;;;8.46;100.00;96681.91;108333;1268;23298;-81
2022/10/04 02:44:22;;;;;;;3.40;1.90;;;;;;;8.47;100.00;96690.47;108322;1268;25252;-82
2022/10/04 02:46:58;;;;;;;5.40;2.60;;;;;;;8.48;100.00;96695.80;108264;1270;23894;-81
2022/10/04 02:49:36;;;;;;;3.50;1.80;;;;;;;8.46;100.00;96704.84;108229;1270;34037;-81
2022/10/04 02:52:11;;;;;;;2.80;1.30;;;;;;;8.42;98.95;96696.04;108359;1269;22541;-81
2022/10/04 02:54:46;;;;;;;2.40;1.80;;;;;;;8.38;97.27;96695.84;108349;1268;23351;-81
2022/10/04 02:57:21;;;;;;;4.20;1.20;;;;;;;8.31;96.81;96699.17;108348;1268;22557;-82
2022/10/04 03:00:02;;;;;;;4.20;1.50;;;;;;;8.27;95.64;96695.14;108283;1267;30169;-81
2022/10/04 03:02:33;;;;;;;4.00;1.60;;;;;;;8.26;95.78;96709.71;108342;1270;22535;-81
2022/10/04 03:05:08;;;;;;;3.30;1.50;;;;;;;8.22;96.06;96707.86;108297;1270;24985;-81
2022/10/04 03:07:40;;;;;;;2.80;1.30;;;;;;;8.19;96.51;96711.92;108331;1270;22571;-81
2022/10/04 03:10:14;;;;;;;3.00;1.20;;;;;;;8.15;96.83;96714.80;108146;1270;34021;-81
2022/10/04 03:12:50;;;;;;;3.20;1.30;;;;;;;8.11;97.11;96712.85;108312;1270;24218;-81
2022/10/04 03:15:21;;;;;;;3.90;1.30;;;;;;;8.05;97.38;96711.20;108228;1270;23334;-81
2022/10/04 03:17:53;;;;;;;3.70;1.50;;;;;;;8.02;97.52;96716.35;108343;1270;23769;-81
2022/10/04 03:20:24;;;;;;;6.00;1.90;;;;;;;8.00;97.76;96707.95;108236;1270;32251;-81
2022/10/04 03:22:57;;;;;;;4.80;1.80;;;;;;;7.99;98.09;96700.60;108289;1270;24253;-81
2022/10/04 03:25:35;;;;;;;6.30;1.90;;;;;;;7.95;98.11;96698.64;108326;1270;24210;-81
2022/10/04 03:28:07;;;;;;;4.40;1.70;;;;;;;7.92;98.35;96703.97;108200;1270;24252;-81
2022/10/04 03:30:43;;;;;;;4.60;1.50;;;;;;;7.88;98.57;96703.20;108241;1270;29797;-81
2022/10/04 03:33:23;;;;;;;6.40;2.10;;;;;;;7.91;98.84;96708.04;108245;1270;24379;-81
2022/10/04 03:35:57;;;;;;;5.20;1.80;;;;;;;7.96;98.76;96707.98;108280;1270;22652;-81
2022/10/04 03:38:29;;;;;;;5.10;1.60;;;;;;;8.01;98.61;96707.73;108258;1270;28856;-80
2022/10/04 03:41:03;;;;;;;5.50;2.30;;;;;;;7.98;98.47;96711.27;108303;1270;22551;-81
2022/10/04 03:43:42;;;;;;;7.90;2.80;;;;;;;7.97;98.42;96708.46;108251;1270;22941;-81
2022/10/04 03:46:15;;;;;;;6.10;2.60;;;;;;;8.00;98.54;96710.80;108301;1270;22555;-81
2022/10/04 03:48:49;;;;;;;8.20;3.00;;;;;;;7.99;98.83;96706.52;108222;1270;39496;-81
2022/10/04 03:51:23;;;;;;;6.20;2.60;;;;;;;8.01;98.99;96709.20;108296;1270;22633;-81
2022/10/04 03:53:57;;;;;;;8.20;3.30;;;;;;;8.02;99.19;96706.95;108227;1270;23229;-81
2022/10/04 03:56:31;;;;;;;9.40;3.20;;;;;;;8.06;99.57;96710.83;108272;1270;22645;-81
2022/10/04 03:59:05;;;;;;;4.70;2.50;;;;;;;8.09;99.64;96716.54;108166;1270;28105;-80
2022/10/04 04:01:40;;;;;;;6.70;2.50;;;;;;;8.10;99.45;96712.73;108327;1270;22528;-80
2022/10/04 04:04:23;;;;;;;6.00;1.80;;;;;;;8.10;99.15;96721.77;108323;1270;22600;-81
2022/10/04 04:07:02;;;;;;;7.00;2.50;;;;;;;8.09;98.72;96722.14;108307;1270;22757;-81
2022/10/04 04:09:42;;;;;;;4.30;2.30;;;;;;;8.08;98.75;96724.73;108257;1268;23385;-80
2022/10/04 04:12:18;;;;;;;3.60;1.90;;;;;;;8.05;98.77;96718.02;108323;1268;22548;-80
2022/10/04 04:14:53;;;;;;;4.50;2.20;;;;;;;8.01;98.50;96719.84;108339;1268;23488;-81
2022/10/04 04:17:40;;;;;;;5.10;1.70;;;;;;;7.96;98.39;96724.94;108339;1268;22621;-81
2022/10/04 04:20:21;;;;;;;3.00;1.90;;;;;;;7.92;98.33;96728.05;108280;1268;33958;-80
2022/10/04 04:23:00;;;;;;;6.10;2.70;;;;;;;7.88;98.47;96723.86;108334;1268;22579;-81
2022/10/04 04:25:38;;;;;;;6.20;2.50;;;;;;;7.86;98.63;96730.53;108354;1268;24398;-81
2022/10/04 04:28:24;;;;;;;4.30;1.80;;;;;;;7.84;98.34;96725.52;108354;1268;22572;-81
2022/10/04 04:30:59;;;;;;;3.70;1.80;;;;;;;7.84;98.29;96722.81;108323;1268;22461;-81
2022/10/04 04:33:36;;;;;;;4.20;1.30;;;;;;;7.83;98.10;96731.69;108347;1268;22540;-80
2022/10/04 04:36:11;;;;;;;5.70;1.50;;;;;;;7.82;97.80;96726.84;108355;1268;22602;-80
2022/10/04 04:41:30;;;;;;;4.30;1.70;;;;;;;7.83;97.39;96734.86;108357;1268;22530;-81
2022/10/04 04:44:02;;;;;;;3.70;1.40;;;;;;;7.83;97.37;96739.23;108338;1268;22600;-80
2022/10/04 04:46:33;;;;;;;2.40;1.40;;;;;;;7.81;97.35;96746.63;108340;1268;22780;-81
2022/10/04 04:49:06;;;;;;;5.10;1.50;;;;;;;7.83;97.36;96744.98;108268;1268;32653;-81
2022/10/04 04:51:38;;;;;;;4.00;1.50;;;;;;;7.84;97.44;96753.91;108318;1270;22564;-81
2022/10/04 04:54:11;;;;;;;2.50;1.00;;;;;;;7.83;97.58;96749.32;108311;1270;22585;-81
2022/10/04 04:56:44;;;;;;;3.70;1.30;;;;;;;7.85;97.51;96746.16;108233;1270;23866;-81
2022/10/04 04:59:17;;;;;;;4.40;1.30;;;;;;;7.88;97.64;96741.20;108251;1270;28104;-80
2022/10/04 05:01:50;;;;;;;2.70;1.50;;;;;;;7.87;97.71;96752.81;108363;1268;22527;-81
2022/10/04 05:04:23;;;;;;;5.00;1.70;;;;;;;7.88;97.70;96752.69;108365;1268;23492;-81
2022/10/04 05:07:07;;;;;;;3.90;1.20;;;;;;;7.93;97.95;96751.43;108354;1268;22586;-81
2022/10/04 05:09:40;;;;;;;6.40;1.80;;;;;;;8.00;98.13;96752.19;108273;1268;23737;-81
2022/10/04 05:12:17;;;;;;;4.20;1.90;;;;;;;8.05;98.34;96755.77;108329;1268;22549;-80
2022/10/04 05:14:51;;;;;;;3.80;1.80;;;;;;;8.11;98.44;96757.58;108357;1268;22697;-81
2022/10/04 05:17:28;;;;;;;4.10;2.10;;;;;;;8.15;98.47;96759.00;108372;1268;22541;-81
2022/10/04 05:20:03;;;;;;;5.20;1.90;;;;;;;8.17;98.45;96766.79;108130;1270;25855;-81
2022/10/04 05:22:35;;;;;;;5.10;2.20;;;;;;;8.20;98.61;96770.82;108183;1271;24515;-81
2022/10/04 05:25:14;;;;;;;5.70;2.40;;;;;;;8.24;98.72;96774.52;108280;1270;25119;-81
2022/10/04 05:27:46;;;;;;;4.80;2.20;;;;;;;8.28;98.74;96773.05;108269;1270;22815;-81
2022/10/04 05:30:35;;;;;;;4.10;2.40;;;;;;;8.30;98.68;96776.45;108172;1268;47621;-81
2022/10/04 05:33:08;;;;;;;4.50;2.00;;;;;;;8.33;98.54;96776.60;108344;1268;22552;-81
2022/10/04 05:36:03;;;;;;;7.90;3.10;;;;;;;8.36;98.33;96777.03;108306;1268;22699;-81
2022/10/04 05:38:43;;;;;;;8.20;2.80;;;;;;;8.40;98.26;96780.84;108216;1270;25983;-81
2022/10/04 05:41:23;;;;;;;8.50;3.00;;;;;;;8.42;98.40;96785.97;108265;1269;22619;-81
2022/10/04 05:43:56;;;;;;;7.90;3.20;;;;;;;8.44;98.38;96789.05;108212;1270;22520;-81
2022/10/04 05:46:31;;;;;;;3.80;2.00;;;;;;;8.46;98.31;96794.29;108287;1270;22556;-81
2022/10/04 05:49:08;;;;;;;4.90;2.30;;;;;;;8.50;98.05;96786.05;108245;1269;25283;-81
2022/10/04 05:51:51;;;;;;;5.80;2.10;;;;;;;8.51;97.81;96795.52;108284;1270;22583;-81
2022/10/04 05:54:25;;;;;;;7.20;3.20;;;;;;;8.52;97.91;96798.16;108342;1270;22831;-81
2022/10/04 05:57:20;;;;;;;7.20;2.20;;;;;;;8.53;97.89;96799.38;108314;1270;22565;-81
2022/10/04 06:00:11;;;;;;;5.00;1.90;;;;;;;8.55;97.34;96802.17;108208;1270;30255;-81
2022/10/04 06:03:03;;;;;;;8.10;3.30;;;;;;;8.56;97.01;96796.79;108289;1270;22526;-81
2022/10/04 06:05:48;;;;;;;3.90;1.90;;;;;;;8.56;96.62;96807.04;108276;1270;25267;-81
2022/10/04 06:08:31;;;;;;;9.40;2.20;;;;;;;8.58;96.18;96803.77;108213;1270;22917;-82
2022/10/04 06:11:14;;;;;;;8.00;1.90;;;;;;;8.59;95.20;96812.27;108285;1270;22577;-81
2022/10/04 06:14:21;;;;;;;5.10;2.00;;;;;;;8.60;94.75;96804.05;108270;1270;22537;-81
2022/10/04 06:17:10;;;;;;;5.90;2.50;;;;;;;8.61;94.38;96822.19;108304;1270;23949;-81
2022/10/04 06:20:00;;;;;;;6.30;2.50;;;;;;;8.62;94.68;96829.22;108225;1270;27925;-81
2022/10/04 06:22:32;;;;;;;;;;;;;;;8.63;94.62;96824.84;108361;1269;22533;-81
2022/10/04 06:25:08;;;;;;;6.50;2.30;;;;;;;8.64;94.49;96827.59;108332;1269;23890;-81
2022/10/04 06:27:44;;;;;;;5.20;2.10;;;;;;;8.67;94.36;96828.38;108326;1270;22529;-81
2022/10/04 06:30:18;;;;;;;7.90;2.60;;;;;;;8.66;94.24;96827.73;108244;1270;29738;-81
2022/10/04 06:33:05;;;;;;;6.10;2.60;;;;;;;8.65;94.64;96839.21;108335;1268;22796;-82
2022/10/04 06:36:00;;;;;;;8.90;2.80;;;;;;;8.65;94.18;96828.75;108314;1270;22553;-81
2022/10/04 06:39:04;;;;;;;4.00;2.00;;;;;;;8.65;94.20;96844.71;108263;1270;26269;-82
2022/10/04 06:42:08;;;;;;;5.60;2.30;;;;;;;8.65;94.18;96844.45;108228;1270;22698;-82
2022/10/04 06:45:00;;;;;;;6.20;2.70;;;;;;;8.67;93.96;96854.38;108365;1270;24272;-81
2022/10/04 06:47:49;;;;;;;4.20;1.70;;;;;;;8.68;93.69;96854.55;108380;1268;25401;-82
2022/10/04 06:50:32;;;;;;;5.40;2.60;;;;;;;8.67;93.47;96860.73;108251;1270;34347;-82
2022/10/04 06:53:24;;;;;;;5.60;1.70;;;;;;;8.66;93.57;96865.17;108334;1270;23230;-82
2022/10/04 06:56:14;;;;;;;7.40;2.80;;;;;;;8.63;93.32;96867.49;108118;1272;23892;-81
2022/10/04 06:59:02;;;;;;;;;;;;;;;8.63;93.33;96868.65;108263;1270;26687;-82
2022/10/04 07:01:35;;;;;;;7.00;2.40;;;;;;;8.63;93.47;96874.20;108337;1269;25368;-81
2022/10/04 07:04:21;;;;;;;7.20;2.20;;;;;;;8.67;93.39;96875.00;108361;1268;22474;-82
2022/10/04 07:09:57;;;;;;;6.00;2.50;;;;;;;8.78;93.31;96888.00;108249;1270;31281;-81
2022/10/04 07:12:29;;;;;;;6.90;2.90;;;;;;;8.82;93.37;96890.39;108267;1270;22531;-81
2022/10/04 07:15:06;;;;;;;8.00;2.70;;;;;;;8.87;93.14;96888.13;108273;1270;22593;-81
2022/10/04 07:17:42;;;;;;;6.90;2.10;;;;;;;8.91;92.44;96892.95;108335;1270;22476;-81
2022/10/04 07:20:23;;;;;;;7.10;2.60;;;;;;;8.96;92.53;96895.39;108247;1270;36498;-81
2022/10/04 07:23:00;;;;;;;6.80;2.60;;;;;;;9.00;92.53;96908.45;108324;1268;22558;-81
2022/10/04 07:25:35;;;;;;;6.70;2.40;;;;;;;9.03;92.60;96908.02;108343;1268;22554;-81
2022/10/04 07:31:11;;;;;;;4.10;1.90;;;;;;;9.04;92.30;96903.52;108321;1268;25376;-81
2022/10/04 07:33:49;;;;;;;6.30;2.10;;;;;;;9.06;92.48;96899.02;108322;1270;25251;-81
2022/10/04 07:36:26;;;;;;;3.80;2.20;;;;;;;9.12;92.03;96899.02;108343;1267;22585;-81
2022/10/04 07:39:00;;;;;;;5.40;2.60;;;;;;;9.16;91.55;96903.59;108243;1270;30826;-81
2022/10/04 07:41:37;;;;;;;3.40;1.70;;;;;;;9.24;91.59;96906.52;108266;1270;25281;-81
2022/10/04 07:44:21;;;;;;;4.30;2.30;;;;;;;9.32;90.91;96905.38;108256;1270;22538;-81
2022/10/04 07:46:59;;;;;;;5.80;2.00;;;;;;;9.33;90.30;96909.88;108309;1270;22529;-81
2022/10/04 07:49:36;;;;;;;7.70;2.50;;;;;;;9.33;90.19;96916.22;108208;1270;22544;-81
2022/10/04 07:52:38;;;;;;;5.80;2.00;;;;;;;9.42;90.84;96917.55;108349;1270;23884;-81
2022/10/04 07:55:23;;;;;;;5.20;2.10;;;;;;;9.48;90.29;96922.33;108320;1268;22526;-81
2022/10/04 07:58:12;;;;;;;6.70;2.30;;;;;;;9.50;90.01;96922.06;108341;1268;24218;-81
2022/10/04 08:00:53;;;;;;;5.50;2.00;;;;;;;9.58;89.79;96921.55;108244;1270;31912;-81
2022/10/04 08:03:46;;;;;;;6.40;2.20;;;;;;;9.62;89.08;96929.17;108335;1270;22568;-81
2022/10/04 08:06:24;;;;;;;3.80;1.70;;;;;;;9.63;88.80;96933.04;108323;1268;22554;-81
2022/10/04 08:09:24;;;;;;;9.90;2.80;;;;;;;9.62;88.62;96933.62;108272;1268;25540;-81
2022/10/04 08:12:07;;;;;;;8.00;2.70;;;;;;;9.64;88.27;96937.12;108210;1270;25836;-81
2022/10/04 08:14:56;;;;;;;7.30;1.90;;;;;;;9.79;88.41;96946.21;108264;1270;23787;-81
2022/10/04 08:17:47;;;;;;;3.10;1.70;;;;;;;9.71;87.32;96945.27;108288;1270;23236;-81
2022/10/04 08:20:39;;;;;;;5.40;2.40;;;;;;;9.61;87.67;96950.40;108223;1270;29346;-82
2022/10/04 08:23:26;;;;;;;7.80;2.40;;;;;;;9.63;88.02;96951.67;108316;1270;22596;-81
2022/10/04 08:26:12;;;;;;;7.60;2.90;;;;;;;9.63;88.07;96958.77;108242;1270;22650;-81
2022/10/04 08:32:03;;;;;;;5.50;1.70;;;;;;;9.60;87.91;96961.15;108300;1270;23743;-81
2022/10/04 08:34:55;;;;;;;4.00;1.70;;;;;;;9.57;87.81;96965.64;108306;1270;24204;-81
2022/10/04 08:37:36;;;;;;;5.20;2.10;;;;;;;9.62;88.20;96964.23;108192;1271;22611;-82
2022/10/04 08:40:23;;;;;;;;;;;;;;;9.66;87.95;96967.23;108242;1268;34487;-81
2022/10/04 08:43:28;;;;;;;6.50;2.00;;;;;;;9.62;87.81;96968.61;108336;1268;24174;-82
2022/10/04 08:46:41;;;;;;;5.90;1.80;;;;;;;9.60;88.03;96975.77;108134;1270;24064;-81
2022/10/04 08:49:42;;;;;;;5.20;1.90;;;;;;;9.60;87.98;96972.95;108151;1270;35655;-81
2022/10/04 08:52:41;;;;;;;6.70;2.30;;;;;;;9.58;88.08;96979.05;108142;1271;22532;-82
2022/10/04 08:55:33;;;;;;;5.50;2.20;;;;;;;9.57;87.92;96979.61;108315;1270;23327;-82
2022/10/04 08:58:16;;;;;;;7.90;2.30;;;;;;;9.57;87.95;96985.11;108320;1270;23864;-82
2022/10/04 09:01:31;;;;;;;6.20;2.00;;;;;;;9.56;88.00;96985.59;108283;1268;29639;-82
2022/10/04 09:04:42;;;;;;;3.60;1.80;;;;;;;9.52;87.85;96989.08;108341;1268;22631;-82
2022/10/04 09:07:37;;;;;;;7.80;2.40;;;;;;;9.50;87.84;96993.10;108256;1270;22698;-82
2022/10/04 09:10:34;;;;;;;6.60;2.00;;;;;;;9.58;88.33;96997.77;108158;1270;35432;-82
2022/10/04 09:13:26;;;;;;;11.20;2.70;;;;;;;9.61;87.99;97005.83;108290;1270;22547;-82
2022/10/04 09:16:09;;;;;;;6.70;2.10;;;;;;;9.57;87.60;97002.16;108244;1270;22544;-82
2022/10/04 09:19:14;;;;;;;5.20;1.80;;;;;;;9.59;87.76;97005.61;108260;1270;27252;-82
2022/10/04 09:22:16;;;;;;;5.60;2.20;;;;;;;9.66;87.83;97009.59;108273;1270;22537;-82
2022/10/04 09:25:08;;;;;;;6.40;2.00;;;;;;;9.67;87.84;97004.98;108356;1270;25318;-82
2022/10/04 09:28:04;;;;;;;6.30;2.30;;;;;;;9.66;88.15;97009.59;108221;1270;22535;-82
2022/10/04 09:30:52;;;;;;;5.50;2.30;;;;;;;9.68;88.41;97017.05;108255;1270;25946;-82
2022/10/04 09:33:51;;;;;;;5.40;2.20;;;;;;;9.75;88.56;97017.18;108323;1270;22562;-82
2022/10/04 09:36:52;;;;;;;5.70;2.50;;;;;;;9.86;88.72;97014.97;108298;1270;22557;-81
2022/10/04 09:39:46;;;;;;;7.10;2.80;;;;;;;9.95;88.61;97017.41;108199;1270;24187;-81
2022/10/04 09:42:41;;;;;;;7.50;2.60;;;;;;;9.97;88.71;97020.33;108320;1270;23276;-82
2022/10/04 09:45:35;;;;;;;7.00;3.10;;;;;;;9.94;88.78;97024.56;108350;1270;22775;-82
2022/10/04 09:48:25;;;;;;;6.60;2.70;;;;;;;9.90;88.48;97021.29;108319;1270;23483;-82
2022/10/04 09:51:18;;;;;;;5.50;2.50;;;;;;;9.84;88.51;97017.77;108358;1270;22527;-82
2022/10/04 09:54:09;;;;;;;7.70;2.50;;;;;;;9.80;88.56;97029.21;108376;1270;22938;-82
2022/10/04 09:57:00;;;;;;;7.80;2.50;;;;;;;9.76;88.63;97028.36;108326;1270;25254;-82
2022/10/04 10:00:08;;;;;;;8.80;2.90;;;;;;;9.71;88.44;97030.30;108259;1270;31654;-82
2022/10/04 10:03:22;;;;;;;7.30;2.70;;;;;;;9.75;88.61;97033.91;107956;1275;23867;-82
2022/10/04 10:06:22;;;;;;;6.80;2.80;;;;;;;9.87;88.65;97038.81;108329;1270;24243;-82
2022/10/04 10:09:07;;;;;;;6.40;2.40;;;;;;;9.97;89.00;97042.52;108269;1268;24951;-82
2022/10/04 10:15:08;;;;;;;5.30;2.40;;;;;;;10.04;88.87;97047.31;108348;1270;22568;-82
2022/10/04 10:17:47;;;;;;;5.10;1.80;;;;;;;10.02;88.93;97053.03;108331;1269;23854;-81
2022/10/04 10:20:56;;;;;;;6.40;2.30;;;;;;;9.97;88.72;97052.73;108273;1270;30729;-82
2022/10/04 10:23:55;;;;;;;6.40;2.40;;;;;;;10.06;88.83;97057.64;108315;1269;22637;-82
2022/10/04 10:26:47;;;;;;;6.60;2.20;;;;;;;10.27;89.15;97059.79;108334;1270;22531;-82
2022/10/04 10:29:53;;;;;;;4.80;2.30;;;;;;;10.46;88.54;97058.16;108202;1270;30328;-82
2022/10/04 10:33:03;;;;;;;6.40;2.20;;;;;;;10.47;86.75;97063.25;108191;1270;22559;-82
2022/10/04 10:36:20;;;;;;;7.50;2.40;;;;;;;10.48;86.49;97064.15;108206;1270;23426;-81
2022/10/04 10:39:10;;;;;;;5.80;1.90;;;;;;;10.43;85.80;97062.40;108097;1270;25409;-81
2022/10/04 10:41:55;;;;;;;5.10;1.70;;;;;;;10.36;84.78;97061.33;108283;1271;25522;-82
2022/10/04 10:45:08;;;;;;;4.20;2.00;;;;;;;10.37;84.60;97069.34;108292;1270;24351;-81
2022/10/04 10:47:52;;;;;;;4.40;1.70;;;;;;;10.51;84.96;97067.75;108269;1270;22584;-81
2022/10/04 10:51:02;;;;;;;5.20;2.00;;;;;;;10.68;84.72;97067.36;108221;1270;37960;-81
2022/10/04 10:54:04;;;;;;;4.50;1.70;;;;;;;10.82;84.23;97067.34;108183;1270;22689;-81
2022/10/04 10:57:01;;;;;;;5.20;1.80;;;;;;;10.97;83.30;97062.70;108298;1270;22489;-81
2022/10/04 11:00:12;;;;;;;3.10;1.60;;;;;;;11.00;81.63;97064.08;108145;1268;35377;-82
2022/10/04 11:03:34;;;;;;;4.80;1.70;;;;;;;11.01;81.23;97064.30;108330;1270;23855;-82
2022/10/04 11:06:24;;;;;;;6.20;2.10;;;;;;;11.06;81.44;97069.05;108025;1273;22566;-81
2022/10/04 11:09:36;;;;;;;2.80;1.50;;;;;;;11.19;82.14;97064.92;108233;1268;37433;-81
2022/10/04 11:12:37;;;;;;;4.10;2.20;;;;;;;11.47;82.74;97064.07;108306;1270;23841;-82
2022/10/04 11:15:39;;;;;;;5.00;2.00;;;;;;;11.72;81.19;97063.54;108282;1270;22564;-82
2022/10/04 11:18:58;;;;;;;4.90;2.00;;;;;;;11.71;80.29;97062.41;108353;1270;25963;-82
2022/10/04 11:22:11;;;;;;;3.40;1.60;;;;;;;11.99;80.46;97061.27;108351;1269;24367;-81
2022/10/04 11:25:33;;;;;;;4.30;1.30;;;;;;;12.02;78.20;97060.40;108344;1271;22547;-81
2022/10/04 11:28:15;;;;;;;5.00;1.70;;;;;;;11.70;76.59;97066.89;108329;1270;22652;-81
2022/10/04 11:31:32;;;;;;;2.70;1.40;;;;;;;11.47;77.18;97070.86;108276;1268;26694;-82
2022/10/04 11:34:49;;;;;;;5.60;2.10;;;;;;;11.11;79.27;97084.52;108320;1268;25241;-81
2022/10/04 11:37:34;;;;;;;5.70;1.80;;;;;;;10.67;81.09;97087.31;108332;1270;22685;-81
2022/10/04 11:40:28;;;;;;;6.20;2.40;;;;;;;10.42;82.79;97097.06;108241;1269;40263;-81
2022/10/04 11:43:23;;;;;;;5.10;2.10;;;;;;;10.25;84.72;97098.86;108261;1270;23875;-81
2022/10/04 11:46:12;;;;;;;4.70;2.00;;;;;;;10.22;86.31;97099.86;108284;1270;24231;-81
2022/10/04 11:49:01;;;;;;;3.50;2.00;;;;;;;10.33;87.77;97100.14;108257;1271;29851;-81
2022/10/04 11:52:18;;;;;;;4.40;2.00;;;;;;;10.47;88.51;97102.95;108345;1268;22529;-81
2022/10/04 11:55:23;;;;;;;5.10;2.10;;;;;;;10.65;89.27;97103.48;108320;1270;22765;-82
2022/10/04 11:57:58;;;;;;;3.70;1.90;;;;;;;10.91;89.70;97093.33;108274;1270;24269;-82
2022/10/04 12:00:52;;;;;;;3.20;2.20;;;;;;;11.19;89.81;97097.94;108218;1270;36612;-81
2022/10/04 12:03:52;;;;;;;3.90;1.80;;;;;;;11.48;88.81;97089.13;108266;1269;22681;-80
2022/10/04 12:06:39;;;;;;;5.30;2.40;;;;;;;11.49;88.06;97091.94;108305;1270;22555;-81
2022/10/04 12:09:19;;;;;;;6.10;2.90;;;;;;;11.54;88.85;97095.85;108218;1270;31398;-80
2022/10/04 12:15:08;;;;;;;6.40;2.70;;;;;;;11.47;86.69;97092.85;108331;1268;22688;-80
2022/10/04 12:18:05;;;;;;;4.40;2.10;;;;;;;11.71;87.61;97099.02;108384;1271;22539;-81
2022/10/04 12:21:03;;;;;;;9.80;2.40;;;;;;;11.87;86.04;97096.53;108275;1268;27008;-80
2022/10/04 12:24:03;;;;;;;4.30;2.00;;;;;;;11.82;84.97;97096.06;108178;1269;22527;-80
2022/10/04 12:27:01;;;;;;;4.90;2.00;;;;;;;11.62;84.08;97096.45;108338;1269;22637;-81
2022/10/04 12:30:08;;;;;;;5.20;2.30;;;;;;;11.49;84.50;97097.94;108276;1268;35813;-81
2022/10/04 12:32:46;;;;;;;7.00;2.40;;;;;;;11.44;85.03;97101.48;108270;1270;22484;-81
2022/10/04 12:35:29;;;;;;;4.00;1.40;;;;;;;11.42;83.89;97107.16;108334;1268;22566;-81
2022/10/04 12:38:22;;;;;;;3.90;1.50;;;;;;;11.38;82.00;97107.21;108287;1270;23337;-81
2022/10/04 12:41:02;;;;;;;3.90;1.30;;;;;;;11.34;79.43;97103.25;108346;1269;22666;-81
2022/10/04 12:43:45;;;;;;;5.50;1.30;;;;;;;11.31;79.40;97107.77;108307;1270;23881;-81
2022/10/04 12:46:31;;;;;;;4.40;1.70;;;;;;;11.32;79.79;97111.70;108298;1271;22644;-81
2022/10/04 12:49:22;;;;;;;3.90;1.30;;;;;;;11.28;79.15;97113.05;108241;1268;27743;-81
2022/10/04 12:52:03;;;;;;;3.50;1.40;;;;;;;11.27;79.40;97111.04;108278;1271;22547;-82
2022/10/04 12:54:43;;;;;;;4.20;1.80;;;;;;;11.32;80.10;97117.48;108328;1268;22566;-81
2022/10/04 12:57:32;;;;;;;3.20;1.30;;;;;;;11.38;80.52;97117.46;108321;1271;22533;-82
2022/10/04 13:00:15;;;;;;;4.00;1.40;;;;;;;11.44;79.96;97121.97;108287;1271;33392;-81
2022/10/04 13:03:02;;;;;;;2.80;1.40;;;;;;;11.42;79.49;97123.41;108356;1268;22548;-82
2022/10/04 13:05:42;;;;;;;4.10;1.60;;;;;;;11.36;78.33;97118.52;108318;1268;23377;-81
2022/10/04 13:08:24;;;;;;;3.20;1.40;;;;;;;11.31;78.91;97119.88;108334;1268;23723;-81
2022/10/04 13:11:11;;;;;;;2.30;1.30;;;;;;;11.57;80.30;97127.34;108347;1268;22505;-81
2022/10/04 13:14:09;;;;;;;4.30;1.90;;;;;;;11.97;79.09;97117.24;108296;1271;24170;-81